createdAt,value
2014-07-28T00:00:07.596Z,25.4
2014-07-28T00:00:25.862Z,25.4
2014-07-28T00:00:44.192Z,25.4
2014-07-28T00:01:02.411Z,25.4
2014-07-28T00:01:20.645Z,25.4
2014-07-28T00:01:38.897Z,25.4
2014-07-28T00:01:57.132Z,25.4
2014-07-28T00:02:15.350Z,25.4
2014-07-28T00:02:33.617Z,25.4
2014-07-28T00:02:51.820Z,25.4
2014-07-28T00:03:10.039Z,25.4
2014-07-28T00:03:28.258Z,25.4
2014-07-28T00:03:46.494Z,25.4
2014-07-28T00:04:04.713Z,25.4
2014-07-28T00:04:22.963Z,25.4
2014-07-28T00:04:41.183Z,25.4
2014-07-28T00:04:59.402Z,25.4
2014-07-28T00:05:17.621Z,25.4
2014-07-28T00:05:35.857Z,25.4
2014-07-28T00:05:54.076Z,25.4
2014-07-28T00:06:12.295Z,25.4
2014-07-28T00:06:30.500Z,25.4
2014-07-28T00:06:48.766Z,25.4
2014-07-28T00:07:07.000Z,25.4
2014-07-28T00:07:25.219Z,25.4
2014-07-28T00:07:43.439Z,25.4
2014-07-28T00:08:01.674Z,25.4
2014-07-28T00:08:20.455Z,25.4
2014-07-28T00:08:38.661Z,25.4
2014-07-28T00:08:56.911Z,25.4
2014-07-28T00:09:15.146Z,25.4
2014-07-28T00:09:33.333Z,25.4
2014-07-28T00:09:51.584Z,25.4
2014-07-28T00:10:09.803Z,25.4
2014-07-28T00:10:28.068Z,25.4
2014-07-28T00:10:46.275Z,25.4
2014-07-28T00:11:04.493Z,25.4
2014-07-28T00:11:22.712Z,25.4
2014-07-28T00:11:40.946Z,25.4
2014-07-28T00:11:59.183Z,25.4
2014-07-28T00:12:17.402Z,25.4
2014-07-28T00:12:35.636Z,25.4
2014-07-28T00:12:53.856Z,25.4
2014-07-28T00:13:12.074Z,25.4
2014-07-28T00:13:30.309Z,25.4
2014-07-28T00:13:48.543Z,25.4
2014-07-28T00:14:06.906Z,25.4
2014-07-28T00:14:25.249Z,25.3
2014-07-28T00:14:43.468Z,25.4
2014-07-28T00:15:01.704Z,25.3
2014-07-28T00:15:19.923Z,25.3
2014-07-28T00:15:38.173Z,25.3
2014-07-28T00:15:56.408Z,25.3
2014-07-28T00:16:14.613Z,25.3
2014-07-28T00:16:32.941Z,25.3
2014-07-28T00:16:51.253Z,25.3
2014-07-28T00:17:09.505Z,25.3
2014-07-28T00:17:27.740Z,25.3
2014-07-28T00:17:46.115Z,25.3
2014-07-28T00:18:04.349Z,25.3
2014-07-28T00:18:22.569Z,25.3
2014-07-28T00:18:40.788Z,25.3
2014-07-28T00:18:59.053Z,25.3
2014-07-28T00:19:17.447Z,25.3
2014-07-28T00:19:35.666Z,25.3
2014-07-28T00:19:53.869Z,25.3
2014-07-28T00:20:12.119Z,25.3
2014-07-28T00:20:30.355Z,25.3
2014-07-28T00:20:48.589Z,25.3
2014-07-28T00:21:06.793Z,25.3
2014-07-28T00:21:25.185Z,25.3
2014-07-28T00:21:43.451Z,25.3
2014-07-28T00:22:01.670Z,25.3
2014-07-28T00:22:19.873Z,25.3
2014-07-28T00:22:38.093Z,25.3
2014-07-28T00:22:56.328Z,25.3
2014-07-28T00:23:14.547Z,25.3
2014-07-28T00:23:32.752Z,25.3
2014-07-28T00:23:50.970Z,25.3
2014-07-28T00:24:09.236Z,25.3
2014-07-28T00:24:27.455Z,25.3
2014-07-28T00:24:45.676Z,25.3
2014-07-28T00:25:03.957Z,25.3
2014-07-28T00:25:22.160Z,25.3
2014-07-28T00:25:40.412Z,25.3
2014-07-28T00:25:58.615Z,25.3
2014-07-28T00:26:16.849Z,25.3
2014-07-28T00:26:35.086Z,25.3
2014-07-28T00:26:53.320Z,25.3
2014-07-28T00:27:11.555Z,25.3
2014-07-28T00:27:29.915Z,25.3
2014-07-28T00:27:48.149Z,25.3
2014-07-28T00:28:06.368Z,25.3
2014-07-28T00:28:24.602Z,25.3
2014-07-28T00:28:42.808Z,25.3
2014-07-28T00:29:01.042Z,25.3
2014-07-28T00:29:19.448Z,25.3
2014-07-28T00:29:37.653Z,25.3
2014-07-28T00:29:55.919Z,25.3
2014-07-28T00:30:14.138Z,25.3
2014-07-28T00:31:04.750Z,25.3
2014-07-28T00:31:22.969Z,25.3
2014-07-28T00:31:55.329Z,25.3
2014-07-28T00:32:13.564Z,25.3
2014-07-28T00:32:31.829Z,25.3
2014-07-28T00:32:50.051Z,25.3
2014-07-28T00:33:08.270Z,25.3
2014-07-28T00:33:26.488Z,25.3
2014-07-28T00:33:44.740Z,25.3
2014-07-28T00:34:02.944Z,25.3
2014-07-28T00:34:21.162Z,25.3
2014-07-28T00:34:39.397Z,25.3
2014-07-28T00:34:57.663Z,25.3
2014-07-28T00:35:15.882Z,25.3
2014-07-28T00:35:34.070Z,25.3
2014-07-28T00:35:52.307Z,25.3
2014-07-28T00:36:10.713Z,25.3
2014-07-28T00:36:28.948Z,25.3
2014-07-28T00:36:47.151Z,25.3
2014-07-28T00:37:05.386Z,25.3
2014-07-28T00:37:23.589Z,25.3
2014-07-28T00:37:41.855Z,25.3
2014-07-28T00:38:00.044Z,25.3
2014-07-28T00:38:18.279Z,25.3
2014-07-28T00:38:36.513Z,25.3
2014-07-28T00:38:54.732Z,25.3
2014-07-28T00:39:12.953Z,25.3
2014-07-28T00:39:31.296Z,25.3
2014-07-28T00:39:49.546Z,25.3
2014-07-28T00:40:07.752Z,25.3
2014-07-28T00:40:25.956Z,25.3
2014-07-28T00:40:44.221Z,25.3
2014-07-28T00:41:02.456Z,25.3
2014-07-28T00:41:34.864Z,25.3
2014-07-28T00:41:53.083Z,25.3
2014-07-28T00:42:11.317Z,25.3
2014-07-28T00:42:44.600Z,25.3
2014-07-28T00:43:02.835Z,25.3
2014-07-28T00:43:21.069Z,25.3
2014-07-28T00:43:39.290Z,25.3
2014-07-28T00:43:57.540Z,25.3
2014-07-28T00:44:15.758Z,25.3
2014-07-28T00:44:34.026Z,25.3
2014-07-28T00:44:52.401Z,25.3
2014-07-28T00:45:10.635Z,25.3
2014-07-28T00:45:28.823Z,25.3
2014-07-28T00:45:47.044Z,25.3
2014-07-28T00:46:05.294Z,25.3
2014-07-28T00:46:23.497Z,25.3
2014-07-28T00:46:41.874Z,25.3
2014-07-28T00:47:00.093Z,25.3
2014-07-28T00:47:18.311Z,25.3
2014-07-28T00:47:36.548Z,25.3
2014-07-28T00:47:54.766Z,25.3
2014-07-28T00:48:12.970Z,25.3
2014-07-28T00:48:31.206Z,25.3
2014-07-28T00:48:49.472Z,25.3
2014-07-28T00:49:07.690Z,25.3
2014-07-28T00:49:25.909Z,25.3
2014-07-28T00:49:44.130Z,25.3
2014-07-28T00:50:02.364Z,25.3
2014-07-28T00:50:20.583Z,25.3
2014-07-28T00:50:38.788Z,25.3
2014-07-28T00:50:57.022Z,25.3
2014-07-28T00:51:15.272Z,25.3
2014-07-28T00:51:33.493Z,25.3
2014-07-28T00:51:51.712Z,25.3
2014-07-28T00:52:09.931Z,25.3
2014-07-28T00:52:28.165Z,25.3
2014-07-28T00:52:46.400Z,25.3
2014-07-28T00:53:04.604Z,25.3
2014-07-28T00:53:22.822Z,25.3
2014-07-28T00:53:41.059Z,25.3
2014-07-28T00:53:59.293Z,25.3
2014-07-28T00:54:17.527Z,25.3
2014-07-28T00:54:35.920Z,25.3
2014-07-28T00:54:54.154Z,25.3
2014-07-28T00:55:12.389Z,25.3
2014-07-28T00:55:30.625Z,25.3
2014-07-28T00:55:48.860Z,25.3
2014-07-28T00:56:07.110Z,25.3
2014-07-28T00:56:25.328Z,25.3
2014-07-28T00:56:43.549Z,25.3
2014-07-28T00:57:01.783Z,25.3
2014-07-28T00:57:20.049Z,25.3
2014-07-28T00:57:38.270Z,25.2
2014-07-28T00:57:56.473Z,25.3
2014-07-28T00:58:14.707Z,25.3
2014-07-28T00:58:32.944Z,25.3
2014-07-28T00:58:51.209Z,25.3
2014-07-28T00:59:09.412Z,25.3
2014-07-28T00:59:27.694Z,25.3
2014-07-28T00:59:45.915Z,25.3
2014-07-28T01:00:04.119Z,25.3
2014-07-28T01:00:22.369Z,25.3
2014-07-28T01:00:40.729Z,25.3
2014-07-28T01:00:58.995Z,25.2
2014-07-28T01:01:17.213Z,25.2
2014-07-28T01:01:35.418Z,25.3
2014-07-28T01:01:53.653Z,25.3
2014-07-28T01:02:11.887Z,25.3
2014-07-28T01:02:30.108Z,25.2
2014-07-28T01:02:48.358Z,25.2
2014-07-28T01:03:06.561Z,25.2
2014-07-28T01:03:24.811Z,25.2
2014-07-28T01:03:43.001Z,25.2
2014-07-28T01:04:01.219Z,25.2
2014-07-28T01:04:19.469Z,25.2
2014-07-28T05:21:37.916Z,24.8
2014-07-28T05:21:56.152Z,24.8
2014-07-28T05:22:14.402Z,24.7
2014-07-28T05:22:32.652Z,24.7
2014-07-28T05:22:50.905Z,24.8
2014-07-28T05:23:09.233Z,24.7
2014-07-28T05:23:27.452Z,24.8
2014-07-28T05:23:45.687Z,24.7
2014-07-28T05:24:03.906Z,24.7
2014-07-28T05:24:22.140Z,24.7
2014-07-28T05:24:40.328Z,24.7
2014-07-28T05:24:58.565Z,24.7
2014-07-28T05:25:16.799Z,24.7
2014-07-28T05:25:35.034Z,24.7
2014-07-28T05:25:53.269Z,24.7
2014-07-28T05:26:11.910Z,24.7
2014-07-28T05:26:30.644Z,24.7
2014-07-28T05:26:49.053Z,24.7
2014-07-28T05:27:07.616Z,24.7
2014-07-28T05:27:26.835Z,24.7
2014-07-28T05:27:45.460Z,24.7
2014-07-28T05:28:04.023Z,24.7
2014-07-28T05:28:23.539Z,24.7
2014-07-28T05:28:42.054Z,24.7
2014-07-28T05:29:00.603Z,24.7
2014-07-28T05:29:19.353Z,24.7
2014-07-28T05:29:39.588Z,24.7
2014-07-28T05:29:58.183Z,24.7
2014-07-28T05:30:17.183Z,24.7
2014-07-28T05:30:35.699Z,24.7
2014-07-28T05:30:54.154Z,24.7
2014-07-28T05:31:13.607Z,24.7
2014-07-28T05:31:46.264Z,24.7
2014-07-28T05:32:04.812Z,24.7
2014-07-28T05:32:37.703Z,24.7
2014-07-28T05:32:57.080Z,24.7
2014-07-28T05:33:15.752Z,24.7
2014-07-28T05:33:34.486Z,24.7
2014-07-28T05:34:07.957Z,24.7
2014-07-28T05:34:26.988Z,24.7
2014-07-28T05:34:49.160Z,24.7
2014-07-28T05:35:11.600Z,24.7
2014-07-28T05:36:09.336Z,24.7
2014-07-28T05:36:34.649Z,24.7
2014-07-28T05:37:10.541Z,24.7
2014-07-28T05:37:33.338Z,24.7
2014-07-28T05:37:55.932Z,24.7
2014-07-28T05:38:31.809Z,24.7
2014-07-28T05:38:54.574Z,24.7
2014-07-28T05:39:17.029Z,24.7
2014-07-28T05:39:53.185Z,24.7
2014-07-28T05:40:16.078Z,24.7
2014-07-28T05:40:41.969Z,24.7
2014-07-28T05:41:07.189Z,24.7
2014-07-28T05:41:29.798Z,24.7
2014-07-28T05:41:55.158Z,24.7
2014-07-28T05:42:20.676Z,24.7
2014-07-28T05:42:43.707Z,24.7
2014-07-28T05:43:06.803Z,24.7
2014-07-28T05:43:29.288Z,24.7
2014-07-28T05:43:52.100Z,24.7
2014-07-28T05:44:17.758Z,24.7
2014-07-28T05:44:40.649Z,24.7
2014-07-28T05:45:03.243Z,24.7
2014-07-28T05:45:25.478Z,24.7
2014-07-28T05:45:48.291Z,24.7
2014-07-28T05:46:11.308Z,24.7
2014-07-28T05:46:50.418Z,24.7
2014-07-28T05:47:12.982Z,24.7
2014-07-28T05:47:35.341Z,24.7
2014-07-28T05:47:57.295Z,24.7
2014-07-28T05:48:34.031Z,24.7
2014-07-28T05:49:09.968Z,24.7
2014-07-28T05:49:29.095Z,24.7
2014-07-28T05:49:48.705Z,24.7
2014-07-28T05:50:07.361Z,24.7
2014-07-28T05:50:26.597Z,24.7
2014-07-28T05:50:45.113Z,24.7
2014-07-28T05:51:04.160Z,24.7
2014-07-28T05:51:22.897Z,24.7
2014-07-28T05:51:41.272Z,24.7
2014-07-28T05:52:00.257Z,24.7
2014-07-28T05:52:19.306Z,24.7
2014-07-28T05:52:38.181Z,24.7
2014-07-28T05:52:56.790Z,24.7
2014-07-28T05:53:15.806Z,24.7
2014-07-28T05:53:34.073Z,24.7
2014-07-28T05:53:52.604Z,24.7
2014-07-28T05:54:11.604Z,24.7
2014-07-28T05:54:29.840Z,24.7
2014-07-28T05:54:48.168Z,24.7
2014-07-28T05:55:06.809Z,24.7
2014-07-28T05:55:25.061Z,24.7
2014-07-28T05:55:43.295Z,24.7
2014-07-28T05:56:01.514Z,24.7
2014-07-28T05:56:19.748Z,24.7
2014-07-28T05:56:38.016Z,24.7
2014-07-28T05:56:56.250Z,24.7
2014-07-28T05:57:14.953Z,24.7
2014-07-28T05:57:33.175Z,24.7
2014-07-28T05:57:51.472Z,24.7
2014-07-28T05:58:09.722Z,24.7
2014-07-28T05:58:28.050Z,24.7
2014-07-28T05:58:46.629Z,24.7
2014-07-28T05:59:04.863Z,24.7
2014-07-28T05:59:23.145Z,24.7
2014-07-28T05:59:41.459Z,24.7
2014-07-28T06:00:00.100Z,24.7
2014-07-28T06:00:18.303Z,24.7
2014-07-28T06:00:36.555Z,24.7
2014-07-28T06:00:54.774Z,24.7
2014-07-28T06:01:13.008Z,24.7
2014-07-28T06:01:31.401Z,24.7
2014-07-28T06:01:50.026Z,24.7
2014-07-28T06:02:08.276Z,24.7
2014-07-28T06:02:26.510Z,24.7
2014-07-28T06:02:44.809Z,24.7
2014-07-28T06:03:02.996Z,24.7
2014-07-28T06:03:21.528Z,24.7
2014-07-28T06:03:39.858Z,24.7
2014-07-28T06:03:58.108Z,24.7
2014-07-28T06:04:16.342Z,24.7
2014-07-28T06:04:34.545Z,24.7
2014-07-28T06:04:52.766Z,24.7
2014-07-28T06:05:11.000Z,24.7
2014-07-28T06:05:29.235Z,24.7
2014-07-28T06:05:47.784Z,24.7
2014-07-28T06:06:06.065Z,24.7
2014-07-28T06:06:24.299Z,24.7
2014-07-28T06:06:42.520Z,24.7
2014-07-28T06:07:00.754Z,24.7
2014-07-28T06:07:19.036Z,24.7
2014-07-28T06:07:37.614Z,24.7
2014-07-28T06:07:55.819Z,24.7
2014-07-28T06:08:14.053Z,24.7
2014-07-28T06:08:32.335Z,24.7
2014-07-28T06:08:50.945Z,24.7
2014-07-28T06:09:09.195Z,24.7
2014-07-28T06:09:27.414Z,24.7
2014-07-28T06:09:45.681Z,24.7
2014-07-28T06:10:03.900Z,24.7
2014-07-28T06:10:22.134Z,24.7
2014-07-28T06:10:40.666Z,24.7
2014-07-28T06:10:58.966Z,24.7
2014-07-28T06:11:17.200Z,24.7
2014-07-28T06:11:35.419Z,24.7
2014-07-28T06:11:53.671Z,24.7
2014-07-28T06:12:11.905Z,24.7
2014-07-28T06:12:30.202Z,24.7
2014-07-28T06:12:48.796Z,24.7
2014-07-28T06:13:07.015Z,24.7
2014-07-28T06:13:25.219Z,24.7
2014-07-28T06:13:43.469Z,24.7
2014-07-28T06:14:01.659Z,24.7
2014-07-28T06:14:19.925Z,24.7
2014-07-28T06:14:38.143Z,24.7
2014-07-28T06:14:56.472Z,24.7
2014-07-28T06:15:14.989Z,24.7
2014-07-28T06:15:33.224Z,24.7
2014-07-28T06:15:51.458Z,24.7
2014-07-28T06:16:09.694Z,24.7
2014-07-28T06:16:27.882Z,24.7
2014-07-28T06:16:46.116Z,24.7
2014-07-28T06:17:04.353Z,24.7
2014-07-28T06:17:36.774Z,24.7
2014-07-28T06:17:54.978Z,24.7
2014-07-28T06:18:13.213Z,24.7
2014-07-28T06:18:31.447Z,24.7
2014-07-28T06:18:49.682Z,24.7
2014-07-28T06:19:07.919Z,24.7
2014-07-28T06:19:26.138Z,24.7
2014-07-28T06:19:44.403Z,24.7
2014-07-28T06:20:02.638Z,24.7
2014-07-28T06:20:20.874Z,24.7
2014-07-28T06:20:39.140Z,24.7
2014-07-28T06:20:57.374Z,24.7
2014-07-28T06:21:15.611Z,24.7
2014-07-28T06:21:33.845Z,24.7
2014-07-28T06:21:52.079Z,24.7
2014-07-28T06:22:10.330Z,24.7
2014-07-28T06:22:28.580Z,24.7
2014-07-28T06:22:46.799Z,24.7
2014-07-28T06:23:04.987Z,24.7
2014-07-28T06:23:23.254Z,24.7
2014-07-28T06:23:41.504Z,24.7
2014-07-28T06:23:59.739Z,24.7
2014-07-28T06:24:17.975Z,24.7
2014-07-28T06:24:36.225Z,24.7
2014-07-28T06:24:54.444Z,24.7
2014-07-28T06:25:12.634Z,24.7
2014-07-28T06:25:30.900Z,24.7
2014-07-28T06:25:49.150Z,24.7
2014-07-28T06:26:07.400Z,24.7
2014-07-28T06:26:25.605Z,24.7
2014-07-28T06:26:43.839Z,24.7
2014-07-28T06:27:02.089Z,24.7
2014-07-28T06:27:20.418Z,24.7
2014-07-28T06:27:38.637Z,24.7
2014-07-28T06:27:56.856Z,24.7
2014-07-28T06:28:15.106Z,24.7
2014-07-28T06:28:33.312Z,24.7
2014-07-28T06:28:51.562Z,24.7
2014-07-28T06:29:09.796Z,24.7
2014-07-28T06:29:28.047Z,24.8
2014-07-28T06:29:46.266Z,24.8
2014-07-28T06:30:04.501Z,24.7
2014-07-28T06:30:22.735Z,24.8
2014-07-28T06:30:40.956Z,24.8
2014-07-28T06:30:59.190Z,24.8
2014-07-28T06:31:17.440Z,24.8
2014-07-28T06:31:35.646Z,24.8
2014-07-28T06:31:53.865Z,24.8
2014-07-28T06:32:12.193Z,24.8
2014-07-28T06:32:30.475Z,24.8
2014-07-28T06:32:48.710Z,24.8
2014-07-28T06:33:06.944Z,24.8
2014-07-28T06:33:25.147Z,24.8
2014-07-28T06:33:43.415Z,24.8
2014-07-28T06:34:01.805Z,24.8
2014-07-28T06:34:20.024Z,24.8
2014-07-28T06:34:38.276Z,24.8
2014-07-28T06:34:56.495Z,24.8
2014-07-28T06:35:14.714Z,24.8
2014-07-28T06:35:32.950Z,24.8
2014-07-28T06:35:51.169Z,24.8
2014-07-28T06:36:09.450Z,24.8
2014-07-28T06:36:27.669Z,24.8
2014-07-28T06:36:45.890Z,24.8
2014-07-28T06:37:04.108Z,24.8
2014-07-28T06:37:22.483Z,24.8
2014-07-28T06:37:40.704Z,24.8
2014-07-28T06:37:58.938Z,24.8
2014-07-28T06:38:17.157Z,24.8
2014-07-28T06:38:35.550Z,24.8
2014-07-28T06:38:53.784Z,24.8
2014-07-28T06:39:12.003Z,24.8
2014-07-28T06:39:30.270Z,24.8
2014-07-28T06:39:48.504Z,24.8
2014-07-28T06:40:06.738Z,24.8
2014-07-28T06:40:24.957Z,24.8
2014-07-28T06:40:43.178Z,24.7
2014-07-28T06:41:01.443Z,24.8
2014-07-28T06:41:19.662Z,24.8
2014-07-28T06:41:37.883Z,24.7
2014-07-28T06:41:56.117Z,24.8
2014-07-28T06:42:14.352Z,24.7
2014-07-28T06:42:32.572Z,24.7
2014-07-28T06:42:50.807Z,24.7
2014-07-28T06:43:09.088Z,24.8
2014-07-28T06:43:27.291Z,24.8
2014-07-28T06:43:45.543Z,24.7
2014-07-28T06:44:03.746Z,24.8
2014-07-28T06:44:22.137Z,24.8
2014-07-28T06:44:40.358Z,24.8
2014-07-28T06:44:58.608Z,24.7
2014-07-28T06:45:16.842Z,24.8
2014-07-28T06:45:35.078Z,24.7
2014-07-28T06:45:53.297Z,24.7
2014-07-28T06:46:11.563Z,24.7
2014-07-28T06:46:29.766Z,24.8
2014-07-28T06:46:48.002Z,24.8
2014-07-28T06:47:06.268Z,24.8
2014-07-28T06:47:24.471Z,24.7
2014-07-28T06:47:42.739Z,24.8
2014-07-28T06:48:00.957Z,24.7
2014-07-28T06:48:51.584Z,24.8
2014-07-28T06:49:09.834Z,24.8
2014-07-28T06:49:28.053Z,24.8
2014-07-28T06:49:46.274Z,24.7
2014-07-28T06:50:04.524Z,24.7
2014-07-28T06:50:22.727Z,24.7
2014-07-28T06:50:55.135Z,24.8
2014-07-28T06:51:13.354Z,24.8
2014-07-28T06:51:31.575Z,24.8
2014-07-28T06:51:49.825Z,24.7
2014-07-28T06:52:22.184Z,24.8
2014-07-28T06:52:40.435Z,24.8
2014-07-28T06:52:58.670Z,24.8
2014-07-28T06:53:16.904Z,24.8
2014-07-28T06:53:35.140Z,24.8
2014-07-28T06:53:53.500Z,24.8
2014-07-28T06:54:11.875Z,24.8
2014-07-28T06:54:30.095Z,24.8
2014-07-28T06:54:48.345Z,24.8
2014-07-28T06:55:06.564Z,24.8
2014-07-28T06:55:24.814Z,24.8
2014-07-28T06:55:43.051Z,24.8
2014-07-28T06:56:01.254Z,24.8
2014-07-28T06:56:19.488Z,24.8
2014-07-28T06:56:37.724Z,24.8
2014-07-28T06:56:55.974Z,24.8
2014-07-28T06:57:14.209Z,24.8
2014-07-28T06:57:32.430Z,24.8
2014-07-28T06:57:50.633Z,24.8
2014-07-28T06:58:08.883Z,24.8
2014-07-28T06:58:27.273Z,24.8
2014-07-28T06:58:45.494Z,24.8
2014-07-28T06:59:03.744Z,24.8
2014-07-28T06:59:21.978Z,24.8
2014-07-28T06:59:40.184Z,24.8
2014-07-28T06:59:58.434Z,24.8
2014-07-28T07:00:16.668Z,24.8
2014-07-28T07:00:34.920Z,24.8
2014-07-28T07:00:53.107Z,24.8
2014-07-28T07:01:11.357Z,24.8
2014-07-28T07:01:29.592Z,24.8
2014-07-28T07:01:47.859Z,24.8
2014-07-28T07:02:06.063Z,24.8
2014-07-28T07:02:24.281Z,24.8
2014-07-28T07:02:42.534Z,24.8
2014-07-28T07:03:00.769Z,24.8
2014-07-28T07:03:18.956Z,24.8
2014-07-28T07:03:37.193Z,24.8
2014-07-28T07:03:55.427Z,24.8
2014-07-28T07:04:13.677Z,24.8
2014-07-28T07:04:31.864Z,24.8
2014-07-28T07:04:50.100Z,24.8
2014-07-28T07:05:08.319Z,24.8
2014-07-28T07:05:26.553Z,24.8
2014-07-28T07:05:44.947Z,24.8
2014-07-28T07:06:03.212Z,24.8
2014-07-28T07:06:21.447Z,24.8
2014-07-28T07:06:39.681Z,24.8
2014-07-28T07:07:12.073Z,24.8
2014-07-28T07:07:30.307Z,24.8
2014-07-28T07:07:48.512Z,24.8
2014-07-28T07:08:06.731Z,24.8
2014-07-28T07:08:24.965Z,24.8
2014-07-28T07:08:43.184Z,24.8
2014-07-28T07:09:01.436Z,24.8
2014-07-28T07:09:19.670Z,24.8
2014-07-28T07:09:37.905Z,24.8
2014-07-28T07:09:56.142Z,24.8
2014-07-28T07:10:14.345Z,24.8
2014-07-28T07:10:32.595Z,24.8
2014-07-28T07:10:50.845Z,24.8
2014-07-28T07:11:09.082Z,24.8
2014-07-28T07:11:27.316Z,24.8
2014-07-28T07:11:45.566Z,24.8
2014-07-28T07:12:03.959Z,24.8
2014-07-28T07:12:22.177Z,24.8
2014-07-28T07:12:40.396Z,24.8
2014-07-28T07:12:58.818Z,24.8
2014-07-28T07:13:17.006Z,24.8
2014-07-28T07:13:35.241Z,24.8
2014-07-28T07:13:53.491Z,24.8
2014-07-28T07:14:11.713Z,24.8
2014-07-28T07:14:29.963Z,24.8
2014-07-28T07:14:48.150Z,24.8
2014-07-28T07:15:06.400Z,24.8
2014-07-28T07:15:24.651Z,24.8
2014-07-28T07:15:42.901Z,24.8
2014-07-28T07:16:01.120Z,24.8
2014-07-28T07:16:19.512Z,24.8
2014-07-28T07:16:37.716Z,24.8
2014-07-28T07:16:55.950Z,24.8
2014-07-28T07:17:14.169Z,24.8
2014-07-28T07:17:32.436Z,24.8
2014-07-28T07:17:50.671Z,24.8
2014-07-28T07:18:08.889Z,24.8
2014-07-28T07:18:27.096Z,24.8
2014-07-28T07:18:45.346Z,24.8
2014-07-28T07:19:03.580Z,24.8
2014-07-28T07:19:21.799Z,24.8
2014-07-28T07:19:40.050Z,24.8
2014-07-28T07:19:58.425Z,24.8
2014-07-28T07:20:16.675Z,24.8
2014-07-28T07:20:35.037Z,24.8
2014-07-28T07:20:53.271Z,24.8
2014-07-28T07:21:11.506Z,24.8
2014-07-28T07:21:29.756Z,24.8
2014-07-28T07:21:47.960Z,24.8
2014-07-28T07:22:06.194Z,24.8
2014-07-28T07:22:24.444Z,24.8
2014-07-28T07:22:42.666Z,24.8
2014-07-28T07:23:15.150Z,24.8
2014-07-28T07:23:33.371Z,24.8
2014-07-28T07:23:51.606Z,24.8
2014-07-28T07:24:09.856Z,24.8
2014-07-28T07:24:28.059Z,24.8
2014-07-28T07:24:46.560Z,24.8
2014-07-28T07:25:04.810Z,24.8
2014-07-28T07:25:23.013Z,24.8
2014-07-28T07:25:41.235Z,24.8
2014-07-28T07:25:59.453Z,24.8
2014-07-28T07:26:17.719Z,24.8
2014-07-28T07:26:35.924Z,24.8
2014-07-28T07:26:54.158Z,24.8
2014-07-28T07:27:12.393Z,24.8
2014-07-28T07:27:30.627Z,24.8
2014-07-28T07:27:48.878Z,24.8
2014-07-28T07:28:07.175Z,24.8
2014-07-28T07:28:25.409Z,24.8
2014-07-28T07:28:43.631Z,24.8
2014-07-28T07:29:01.881Z,24.9
2014-07-28T07:29:20.100Z,24.9
2014-07-28T07:29:38.334Z,24.8
2014-07-28T07:29:56.710Z,24.8
2014-07-28T07:30:14.929Z,24.8
2014-07-28T07:30:33.148Z,24.9
2014-07-28T07:30:51.415Z,24.9
2014-07-28T07:31:09.619Z,24.9
2014-07-28T07:31:27.884Z,24.9
2014-07-28T07:31:46.212Z,24.9
2014-07-28T07:32:04.450Z,24.9
2014-07-28T07:32:22.684Z,24.9
2014-07-28T07:32:40.903Z,24.9
2014-07-28T07:33:13.467Z,24.9
2014-07-28T07:33:31.686Z,24.9
2014-07-28T07:33:49.952Z,24.9
2014-07-28T07:34:08.187Z,24.9
2014-07-28T07:34:26.375Z,24.9
2014-07-28T07:34:44.781Z,24.9
2014-07-28T07:35:03.015Z,24.9
2014-07-28T07:35:21.237Z,24.9
2014-07-28T07:35:39.456Z,24.9
2014-07-28T07:35:57.706Z,24.9
2014-07-28T07:36:15.942Z,24.9
2014-07-28T07:36:34.145Z,24.9
2014-07-28T07:36:52.395Z,24.9
2014-07-28T07:37:10.630Z,24.9
2014-07-28T07:37:28.882Z,24.9
2014-07-28T07:37:47.085Z,24.9
2014-07-28T07:38:05.335Z,24.9
2014-07-28T07:38:23.571Z,24.9
2014-07-28T07:38:55.930Z,24.9
2014-07-28T07:39:14.165Z,24.9
2014-07-28T07:39:32.417Z,24.9
2014-07-28T07:39:50.651Z,24.9
2014-07-28T07:40:08.886Z,24.9
2014-07-28T07:40:27.120Z,24.9
2014-07-28T07:40:45.356Z,24.9
2014-07-28T07:41:03.544Z,24.9
2014-07-28T07:41:21.809Z,24.9
2014-07-28T07:41:40.046Z,24.9
2014-07-28T07:41:58.280Z,25
2014-07-28T07:42:16.655Z,25
2014-07-28T07:42:34.891Z,25
2014-07-28T07:42:53.125Z,25
2014-07-28T07:43:11.359Z,25
2014-07-28T07:43:29.547Z,25
2014-07-28T07:43:47.783Z,25
2014-07-28T07:44:06.033Z,25
2014-07-28T07:44:24.268Z,25
2014-07-28T07:45:14.863Z,25
2014-07-28T07:45:33.100Z,25
2014-07-28T07:45:51.350Z,25
2014-07-28T07:46:09.553Z,25
2014-07-28T07:46:27.787Z,25
2014-07-28T07:46:46.024Z,25
2014-07-28T07:47:04.258Z,25
2014-07-28T07:47:22.461Z,25
2014-07-28T07:47:40.729Z,25
2014-07-28T07:47:58.963Z,25
2014-07-28T07:48:17.213Z,25
2014-07-28T07:48:35.574Z,25
2014-07-28T07:48:53.840Z,25
2014-07-28T07:49:12.074Z,25
2014-07-28T07:49:30.280Z,25
2014-07-28T07:49:48.530Z,25
2014-07-28T07:50:06.764Z,25
2014-07-28T07:50:24.983Z,25
2014-07-28T07:50:43.203Z,25
2014-07-28T07:51:01.438Z,25
2014-07-28T07:51:19.657Z,25
2014-07-28T07:51:37.877Z,25
2014-07-28T07:51:56.143Z,25
2014-07-28T07:52:14.487Z,25
2014-07-28T07:52:32.723Z,25
2014-07-28T07:52:50.942Z,25
2014-07-28T07:53:09.161Z,25
2014-07-28T07:53:27.411Z,25
2014-07-28T07:53:45.647Z,25
2014-07-28T07:54:03.850Z,25
2014-07-28T07:54:22.084Z,25
2014-07-28T07:54:40.336Z,25
2014-07-28T07:54:58.555Z,25
2014-07-28T07:55:16.790Z,25
2014-07-28T07:55:35.182Z,25
2014-07-28T07:55:53.417Z,25
2014-07-28T07:56:11.635Z,25
2014-07-28T07:56:29.854Z,25
2014-07-28T07:56:48.121Z,25
2014-07-28T07:57:06.371Z,25
2014-07-28T07:57:24.589Z,25
2014-07-28T07:57:42.812Z,25
2014-07-28T07:58:15.218Z,25
2014-07-28T07:58:33.437Z,25
2014-07-28T07:58:51.689Z,25
2014-07-28T07:59:09.908Z,25
2014-07-28T07:59:28.127Z,25
2014-07-28T07:59:46.330Z,25
2014-07-28T08:00:04.582Z,25
2014-07-28T08:00:22.801Z,25
2014-07-28T08:00:41.051Z,25
2014-07-28T08:00:59.255Z,25
2014-07-28T08:01:17.489Z,25
2014-07-28T08:01:35.723Z,25
2014-07-28T08:01:53.958Z,25
2014-07-28T08:02:12.208Z,25
2014-07-28T08:02:30.411Z,25
2014-07-28T08:02:48.661Z,25
2014-07-28T08:03:06.909Z,25
2014-07-28T08:03:25.128Z,25
2014-07-28T08:03:43.378Z,25
2014-07-28T08:04:01.597Z,25
2014-07-28T08:04:19.871Z,25
2014-07-28T08:04:38.090Z,25
2014-07-28T08:04:56.340Z,25
2014-07-28T08:05:14.588Z,25
2014-07-28T08:05:32.838Z,25
2014-07-28T08:05:51.088Z,25
2014-07-28T08:06:09.307Z,25
2014-07-28T08:06:27.739Z,25
2014-07-28T08:06:45.942Z,25
2014-07-28T08:07:04.160Z,25
2014-07-28T08:07:22.468Z,25
2014-07-28T08:07:40.702Z,25
2014-07-28T08:07:58.905Z,25
2014-07-28T08:08:17.140Z,25
2014-07-28T08:08:35.406Z,25
2014-07-28T08:08:53.640Z,25
2014-07-28T08:09:11.859Z,25
2014-07-28T08:09:30.063Z,25
2014-07-28T08:09:48.313Z,25
2014-07-28T08:10:06.548Z,25
2014-07-28T08:10:24.907Z,25
2014-07-28T08:10:43.157Z,25
2014-07-28T08:11:01.392Z,25
2014-07-28T08:11:19.626Z,25.1
2014-07-28T08:11:37.861Z,25.1
2014-07-28T08:11:56.080Z,25.1
2014-07-28T08:12:14.361Z,25.1
2014-07-28T08:12:47.478Z,25.1
2014-07-28T08:13:05.713Z,25.1
2014-07-28T08:13:23.931Z,25.1
2014-07-28T08:13:42.187Z,25.1
2014-07-28T08:14:00.422Z,25.1
2014-07-28T08:14:18.656Z,25.1
2014-07-28T08:14:37.022Z,25.1
2014-07-28T08:15:09.413Z,25
2014-07-28T08:15:27.647Z,25
2014-07-28T08:15:45.890Z,25.1
2014-07-28T08:16:04.124Z,25
2014-07-28T08:16:22.343Z,25
2014-07-28T08:16:40.569Z,25.1
2014-07-28T08:16:58.834Z,25.1
2014-07-28T08:17:17.069Z,25.1
2014-07-28T08:17:49.448Z,25.1
2014-07-28T08:18:07.776Z,25.1
2014-07-28T08:18:26.026Z,25.1
2014-07-28T08:18:44.280Z,25.1
2014-07-28T08:19:02.514Z,25.1
2014-07-28T08:19:20.749Z,25.1
2014-07-28T08:19:38.987Z,25.1
2014-07-28T08:19:57.299Z,25.1
2014-07-28T08:20:15.581Z,25.1
2014-07-28T08:20:33.815Z,25.1
2014-07-28T08:20:52.022Z,25.1
2014-07-28T08:21:10.272Z,25.1
2014-07-28T08:21:28.475Z,25.1
2014-07-28T08:21:46.729Z,25.1
2014-07-28T08:22:04.932Z,25.1
2014-07-28T08:22:23.167Z,25.1
2014-07-28T08:22:41.401Z,25.1
2014-07-28T08:22:59.653Z,25.1
2014-07-28T08:23:32.044Z,25.1
2014-07-28T08:23:50.266Z,25.1
2014-07-28T08:24:08.578Z,25.1
2014-07-28T08:24:26.812Z,25.1
2014-07-28T08:24:45.062Z,25.1
2014-07-28T08:25:03.361Z,25.1
2014-07-28T08:25:21.549Z,25.1
2014-07-28T08:25:54.864Z,25.1
2014-07-28T08:26:13.099Z,25.1
2014-07-28T08:26:31.458Z,25.1
2014-07-28T08:26:49.833Z,25.1
2014-07-28T08:27:08.054Z,25.1
2014-07-28T08:27:26.288Z,25.1
2014-07-28T08:27:44.554Z,25.1
2014-07-28T08:28:02.776Z,25.1
2014-07-28T08:28:21.151Z,25.1
2014-07-28T08:28:39.354Z,25.1
2014-07-28T08:28:57.619Z,25.1
2014-07-28T08:29:15.840Z,25.1
2014-07-28T08:29:34.090Z,25.1
2014-07-28T08:29:52.293Z,25.1
2014-07-28T08:30:10.561Z,25.1
2014-07-28T08:30:28.795Z,25.1
2014-07-28T08:30:47.014Z,25.1
2014-07-28T08:31:05.248Z,25.1
2014-07-28T08:31:23.500Z,25.1
2014-07-28T08:31:41.735Z,25.1
2014-07-28T08:31:59.969Z,25.1
2014-07-28T08:32:18.175Z,25.1
2014-07-28T08:32:36.410Z,25.1
2014-07-28T08:32:54.628Z,25.1
2014-07-28T08:33:12.863Z,25.1